Time;durP1;ratioP1;P1;durP2;ratioP2;P2;SDS_P1;SDS_P2;PMS_P1;PMS_P2;Temp;Humidity;BMP_temperature;BMP_pressure;BME280_temperature;BME280_humidity;BME280_pressure;Samples;Min_cycle;Max_cycle;Signal;HPM_P1;HPM_P2
2021/10/29 00:00:40;;;;;;;18.67;13.27;;;9.00;98.40;;;;;;5050225;28;20025;-79
2021/10/29 00:03:06;;;;;;;21.05;14.30;;;9.00;98.40;;;;;;5050707;28;20096;-79
2021/10/29 00:05:32;;;;;;;17.42;12.93;;;8.90;98.50;;;;;;5050609;28;20060;-79
2021/10/29 00:07:59;;;;;;;21.45;14.23;;;8.90;98.60;;;;;;5049872;28;20113;-80
2021/10/29 00:10:26;;;;;;;17.23;12.98;;;8.90;98.60;;;;;;5050932;28;20029;-79
2021/10/29 00:12:51;;;;;;;23.27;13.57;;;8.90;98.60;;;;;;5049191;28;20029;-79
2021/10/29 00:15:18;;;;;;;21.83;14.20;;;8.80;98.70;;;;;;5050748;28;20086;-79
2021/10/29 00:17:43;;;;;;;20.17;13.63;;;8.80;98.80;;;;;;5049816;28;20036;-79
2021/10/29 00:20:10;;;;;;;18.33;13.38;;;8.70;98.80;;;;;;5049802;28;20056;-80
2021/10/29 00:22:36;;;;;;;17.67;12.27;;;8.80;98.80;;;;;;5048277;28;20119;-80
2021/10/29 00:25:03;;;;;;;18.63;13.18;;;8.80;98.80;;;;;;5050361;28;20032;-79
2021/10/29 00:27:29;;;;;;;23.98;14.18;;;8.70;98.90;;;;;;5049987;28;20047;-79
2021/10/29 00:29:55;;;;;;;20.95;14.60;;;8.70;98.90;;;;;;5049623;28;20102;-79
2021/10/29 00:32:21;;;;;;;20.48;13.73;;;8.70;99.00;;;;;;5049797;28;20120;-78
2021/10/29 00:34:47;;;;;;;21.60;14.55;;;8.60;99.00;;;;;;5049930;28;20025;-79
2021/10/29 00:37:12;;;;;;;23.00;13.15;;;8.60;99.10;;;;;;5049609;28;20110;-78
2021/10/29 00:39:38;;;;;;;22.83;14.02;;;8.60;99.10;;;;;;5049593;28;20036;-78
2021/10/29 00:42:03;;;;;;;20.98;14.30;;;8.60;99.20;;;;;;5051417;28;20116;-78
2021/10/29 00:44:29;;;;;;;22.67;13.95;;;8.50;99.20;;;;;;5030230;28;20436;-78
2021/10/29 00:46:55;;;;;;;24.48;14.75;;;8.50;99.40;;;;;;5030154;28;20033;-78
2021/10/29 00:49:21;;;;;;;21.30;13.90;;;8.50;99.40;;;;;;5029595;28;20040;-78
2021/10/29 00:51:47;;;;;;;21.58;15.63;;;8.50;99.40;;;;;;5029683;28;20018;-78
2021/10/29 00:54:16;;;;;;;22.95;15.93;;;8.50;99.50;;;;;;5028377;28;20144;-78
2021/10/29 00:56:43;;;;;;;24.80;14.90;;;8.40;99.50;;;;;;5029415;28;20036;-78
2021/10/29 00:59:08;;;;;;;22.70;14.90;;;8.40;99.60;;;;;;5029134;28;20030;-78
2021/10/29 01:01:34;;;;;;;22.58;15.25;;;8.40;99.60;;;;;;5029465;28;20060;-79
2021/10/29 01:04:00;;;;;;;24.25;15.45;;;8.40;99.70;;;;;;5029379;28;20029;-78
2021/10/29 01:06:25;;;;;;;21.25;13.38;;;8.40;99.60;;;;;;5028651;28;20083;-78
2021/10/29 01:08:51;;;;;;;22.15;15.52;;;8.40;99.80;;;;;;5029133;28;20030;-79
2021/10/29 01:11:19;;;;;;;22.50;14.98;;;8.40;99.70;;;;;;5029143;28;20037;-79
2021/10/29 01:13:49;;;;;;;22.67;15.52;;;8.30;99.70;;;;;;5029825;28;20538;-78
2021/10/29 01:16:16;;;;;;;22.88;15.57;;;8.30;99.80;;;;;;5029721;28;20095;-78
2021/10/29 01:18:42;;;;;;;21.75;15.40;;;8.30;99.90;;;;;;5028974;28;20342;-79
2021/10/29 01:21:09;;;;;;;26.23;16.80;;;8.30;99.90;;;;;;5027639;28;20049;-79
2021/10/29 01:23:36;;;;;;;24.05;15.23;;;8.30;99.90;;;;;;5029835;28;20033;-79
2021/10/29 01:26:05;;;;;;;21.50;14.93;;;8.30;99.90;;;;;;5028097;28;20104;-79
2021/10/29 01:28:31;;;;;;;26.33;16.30;;;8.30;99.90;;;;;;5028823;28;20064;-80
2021/10/29 01:30:56;;;;;;;19.42;13.55;;;8.30;99.90;;;;;;5028905;28;20061;-78
2021/10/29 01:33:22;;;;;;;22.90;14.85;;;8.30;99.90;;;;;;5033100;28;20116;-79
2021/10/29 01:35:48;;;;;;;24.55;16.23;;;8.30;99.90;;;;;;5033755;28;20022;-79
2021/10/29 01:38:14;;;;;;;22.45;14.73;;;8.30;99.90;;;;;;5032690;28;20041;-79
2021/10/29 01:40:39;;;;;;;24.90;16.85;;;8.30;99.90;;;;;;5033558;28;20108;-79
2021/10/29 01:43:05;;;;;;;24.48;15.95;;;8.30;99.90;;;;;;5033286;28;20030;-79
2021/10/29 01:45:32;;;;;;;24.92;15.85;;;8.20;99.90;;;;;;5033882;28;20509;-79
2021/10/29 01:47:58;;;;;;;23.42;15.35;;;8.20;99.90;;;;;;5032292;28;20068;-79
2021/10/29 01:50:23;;;;;;;26.50;15.80;;;8.20;99.90;;;;;;5033659;28;20057;-79
2021/10/29 01:52:49;;;;;;;23.65;14.70;;;8.20;99.90;;;;;;5043502;28;20410;-79
2021/10/29 01:55:15;;;;;;;27.98;16.10;;;8.20;99.90;;;;;;5051925;28;20537;-79
2021/10/29 01:57:41;;;;;;;23.38;15.35;;;8.20;99.90;;;;;;5052608;28;20029;-79
2021/10/29 02:00:07;;;;;;;26.23;16.20;;;8.20;99.90;;;;;;5052784;28;20469;-79
2021/10/29 02:02:32;;;;;;;24.13;14.63;;;8.20;99.90;;;;;;5052664;28;20033;-79
2021/10/29 02:04:58;;;;;;;23.13;16.75;;;8.20;99.90;;;;;;5052554;28;20029;-79
2021/10/29 02:07:24;;;;;;;23.73;15.82;;;8.10;99.90;;;;;;5052842;28;20021;-81
2021/10/29 02:09:49;;;;;;;22.15;14.88;;;8.10;99.90;;;;;;5050937;28;20039;-80
2021/10/29 02:12:14;;;;;;;26.52;15.52;;;8.10;99.90;;;;;;5052578;28;20031;-80
2021/10/29 02:14:40;;;;;;;24.80;15.85;;;8.10;99.90;;;;;;5052985;28;20033;-80
2021/10/29 02:17:06;;;;;;;24.52;16.08;;;8.10;99.90;;;;;;5051356;28;20051;-80
2021/10/29 02:19:31;;;;;;;23.38;15.77;;;8.10;99.90;;;;;;5052344;28;20036;-80
2021/10/29 02:21:58;;;;;;;23.15;14.98;;;8.10;99.90;;;;;;5052038;28;20052;-80
2021/10/29 02:24:23;;;;;;;23.23;15.48;;;8.10;99.90;;;;;;5052656;28;20025;-80
2021/10/29 02:26:49;;;;;;;23.25;15.70;;;8.10;99.90;;;;;;5052440;28;20466;-81
2021/10/29 02:29:15;;;;;;;24.60;15.75;;;8.00;99.90;;;;;;5051903;28;20041;-81
2021/10/29 02:31:41;;;;;;;25.15;16.45;;;8.00;99.90;;;;;;5052231;28;20029;-80
2021/10/29 02:34:06;;;;;;;26.80;16.88;;;8.00;99.90;;;;;;5052146;28;20029;-81
2021/10/29 02:36:32;;;;;;;25.98;15.85;;;8.00;99.90;;;;;;5051421;28;20029;-80
2021/10/29 02:38:58;;;;;;;25.02;15.98;;;7.90;99.90;;;;;;5050336;28;20127;-81
2021/10/29 02:41:24;;;;;;;22.38;14.02;;;7.90;99.90;;;;;;5051929;28;20032;-81
2021/10/29 02:43:50;;;;;;;22.85;14.45;;;7.90;99.90;;;;;;5051506;28;20033;-80
2021/10/29 02:46:16;;;;;;;23.23;15.27;;;7.90;99.90;;;;;;5052213;28;20489;-81
2021/10/29 02:48:41;;;;;;;22.45;14.23;;;7.90;99.90;;;;;;5051481;28;20037;-81
2021/10/29 02:51:07;;;;;;;23.75;15.40;;;7.90;99.90;;;;;;5052021;28;20051;-81
2021/10/29 02:53:35;;;;;;;23.50;14.90;;;7.90;99.90;;;;;;5052272;28;20033;-81
2021/10/29 02:56:01;;;;;;;23.02;15.20;;;7.90;99.90;;;;;;5051977;28;20025;-80
2021/10/29 02:58:30;;;;;;;24.52;15.60;;;7.90;99.90;;;;;;5051233;28;20501;-81
2021/10/29 03:00:57;;;;;;;22.00;14.75;;;7.90;99.90;;;;;;5051581;28;20032;-81
2021/10/29 03:03:23;;;;;;;24.27;16.67;;;7.90;99.90;;;;;;5050680;28;20024;-81
2021/10/29 03:05:49;;;;;;;23.33;15.77;;;7.90;99.90;;;;;;5050377;28;20044;-81
2021/10/29 03:08:14;;;;;;;26.52;16.20;;;7.90;99.90;;;;;;5051383;28;20041;-80
2021/10/29 03:10:40;;;;;;;25.60;16.48;;;7.90;99.90;;;;;;5051768;28;20497;-81
2021/10/29 03:13:05;;;;;;;25.08;15.70;;;7.90;99.90;;;;;;5050270;28;20029;-81
2021/10/29 03:15:31;;;;;;;26.90;15.98;;;7.90;99.90;;;;;;5051811;28;20035;-80
2021/10/29 03:17:57;;;;;;;24.42;15.45;;;7.80;99.90;;;;;;5049222;28;20176;-81
2021/10/29 03:20:22;;;;;;;25.80;16.08;;;7.80;99.90;;;;;;5051776;28;20037;-81
2021/10/29 03:22:48;;;;;;;23.90;14.95;;;7.80;99.90;;;;;;5051294;28;20059;-80
2021/10/29 03:25:14;;;;;;;27.45;15.95;;;7.80;99.90;;;;;;5051592;28;20025;-80
2021/10/29 03:27:39;;;;;;;25.27;15.27;;;7.80;99.90;;;;;;5051130;28;20063;-80
2021/10/29 03:30:05;;;;;;;24.90;15.73;;;7.70;99.90;;;;;;5050863;28;20124;-80
2021/10/29 03:32:31;;;;;;;22.33;15.10;;;7.70;99.90;;;;;;5050868;28;20025;-80
2021/10/29 03:34:58;;;;;;;27.02;15.38;;;7.60;99.90;;;;;;5051158;28;20380;-81
2021/10/29 03:40:11;;;;;;;29.10;16.80;;;7.60;99.90;;;;;;5050567;28;20106;-80
2021/10/29 03:42:42;;;;;;;23.10;14.18;;;7.60;99.90;;;;;;5051319;28;20021;-80
2021/10/29 03:45:11;;;;;;;22.88;14.98;;;7.60;99.90;;;;;;5051064;28;20029;-80
2021/10/29 03:47:45;;;;;;;29.88;16.60;;;7.60;99.90;;;;;;5047303;28;20032;-80
2021/10/29 03:50:22;;;;;;;25.70;15.80;;;7.60;99.90;;;;;;5031207;28;20033;-80
2021/10/29 03:55:42;;;;;;;26.27;16.08;;;7.60;99.90;;;;;;5031012;28;20416;-80
2021/10/29 03:58:08;;;;;;;27.65;15.15;;;7.50;99.90;;;;;;5028360;28;20064;-80
2021/10/29 04:00:34;;;;;;;29.55;16.60;;;7.50;99.90;;;;;;5030985;28;20036;-81
2021/10/29 04:03:03;;;;;;;22.98;14.60;;;7.50;99.90;;;;;;5028790;28;20425;-80
2021/10/29 04:05:30;;;;;;;22.60;14.38;;;7.40;99.90;;;;;;5031105;28;20025;-81
2021/10/29 04:07:56;;;;;;;24.05;15.43;;;7.40;99.90;;;;;;5029911;28;20033;-81
2021/10/29 04:10:28;;;;;;;22.65;14.20;;;7.40;99.90;;;;;;5029471;28;20056;-80
2021/10/29 04:12:55;;;;;;;25.67;15.57;;;7.40;99.90;;;;;;5029187;28;20112;-81
2021/10/29 04:15:22;;;;;;;30.17;15.35;;;7.40;99.90;;;;;;5030146;28;20538;-78
2021/10/29 04:17:48;;;;;;;26.75;16.02;;;7.40;99.90;;;;;;5028705;28;20456;-79
2021/10/29 04:20:13;;;;;;;26.02;15.38;;;7.40;99.90;;;;;;5030367;28;20072;-79
2021/10/29 04:22:39;;;;;;;25.30;15.55;;;7.40;99.90;;;;;;5030481;28;20037;-79
2021/10/29 04:25:05;;;;;;;22.20;13.63;;;7.40;99.90;;;;;;5029996;28;20601;-79
2021/10/29 04:27:33;;;;;;;26.98;15.32;;;7.30;99.90;;;;;;5030534;28;20057;-79
2021/10/29 04:30:00;;;;;;;26.80;15.50;;;7.40;99.90;;;;;;5029805;28;20025;-78
2021/10/29 04:32:26;;;;;;;25.92;14.48;;;7.30;99.90;;;;;;5029718;28;20018;-79
2021/10/29 04:34:52;;;;;;;25.80;16.50;;;7.30;99.90;;;;;;5030428;28;20033;-80
2021/10/29 04:37:18;;;;;;;23.02;14.45;;;7.40;99.90;;;;;;5030084;28;20029;-79
2021/10/29 04:39:45;;;;;;;24.45;14.00;;;7.30;99.90;;;;;;5029687;28;20045;-79
2021/10/29 04:42:10;;;;;;;22.67;14.75;;;7.30;99.90;;;;;;5029727;28;20470;-79
2021/10/29 04:44:36;;;;;;;23.20;13.90;;;7.30;99.90;;;;;;5030323;28;20029;-79
2021/10/29 04:47:02;;;;;;;23.73;14.55;;;7.30;99.90;;;;;;5029940;28;20041;-78
2021/10/29 04:49:27;;;;;;;23.67;14.15;;;7.30;99.90;;;;;;5029270;28;20124;-79
2021/10/29 04:51:53;;;;;;;25.25;14.75;;;7.30;99.90;;;;;;5030322;28;20029;-79
2021/10/29 04:54:18;;;;;;;25.48;13.95;;;7.30;99.90;;;;;;5029828;28;20029;-79
2021/10/29 04:56:44;;;;;;;22.00;13.40;;;7.30;99.90;;;;;;5030190;28;20033;-79
2021/10/29 04:59:12;;;;;;;25.52;13.93;;;7.30;99.90;;;;;;5028674;28;20034;-79
2021/10/29 05:01:38;;;;;;;27.08;15.65;;;7.30;99.90;;;;;;5028401;28;20489;-79
2021/10/29 05:04:04;;;;;;;21.33;14.27;;;7.30;99.90;;;;;;5029654;28;20029;-78
2021/10/29 05:06:29;;;;;;;22.40;13.80;;;7.30;99.90;;;;;;5029218;28;20066;-79
2021/10/29 05:08:55;;;;;;;23.30;14.73;;;7.20;99.90;;;;;;5028100;28;20087;-79
2021/10/29 05:11:20;;;;;;;24.10;14.52;;;7.20;99.90;;;;;;5029653;28;20104;-79
2021/10/29 05:13:46;;;;;;;22.83;14.00;;;7.20;99.90;;;;;;5030079;28;20032;-79
2021/10/29 05:16:11;;;;;;;22.95;14.07;;;7.20;99.90;;;;;;5029856;28;20038;-79
2021/10/29 05:18:36;;;;;;;24.48;14.15;;;7.20;99.90;;;;;;5029537;28;20176;-81
2021/10/29 05:21:02;;;;;;;22.38;13.55;;;7.10;99.90;;;;;;5028917;28;20508;-79
2021/10/29 05:23:28;;;;;;;26.45;13.82;;;7.10;99.90;;;;;;5029868;28;20037;-81
2021/10/29 05:25:53;;;;;;;20.98;13.65;;;7.10;99.90;;;;;;5030786;28;20112;-78
2021/10/29 05:28:19;;;;;;;25.40;14.90;;;7.10;99.90;;;;;;5028785;28;20025;-79
2021/10/29 05:30:44;;;;;;;22.13;13.45;;;7.10;99.90;;;;;;5029353;28;20057;-79
2021/10/29 05:33:10;;;;;;;21.38;13.20;;;7.10;99.90;;;;;;5029481;28;20087;-79
2021/10/29 05:35:35;;;;;;;24.17;14.65;;;7.10;99.90;;;;;;5030232;28;20108;-79
2021/10/29 05:38:03;;;;;;;22.75;13.27;;;7.10;99.90;;;;;;5028566;28;20034;-79
2021/10/29 05:40:28;;;;;;;27.30;15.32;;;7.10;99.90;;;;;;5029235;28;20072;-79
2021/10/29 05:42:54;;;;;;;20.38;13.40;;;7.10;99.90;;;;;;5029357;28;20053;-79
2021/10/29 05:45:19;;;;;;;22.17;13.43;;;7.10;99.90;;;;;;5028906;28;20356;-79
2021/10/29 05:47:45;;;;;;;21.88;14.77;;;7.10;99.90;;;;;;5028871;28;20033;-79
2021/10/29 05:50:12;;;;;;;22.23;14.02;;;7.10;99.90;;;;;;5028835;28;20083;-79
2021/10/29 05:52:41;;;;;;;23.83;13.85;;;7.10;99.90;;;;;;5034824;28;20021;-79
2021/10/29 05:55:16;;;;;;;19.38;12.40;;;7.10;99.90;;;;;;5048706;28;20036;-79
2021/10/29 05:57:48;;;;;;;22.83;13.15;;;7.10;99.90;;;;;;5048281;28;20773;-80
2021/10/29 06:00:16;;;;;;;24.67;13.85;;;7.10;99.90;;;;;;5047707;28;20041;-79
2021/10/29 06:02:42;;;;;;;21.58;12.98;;;7.10;99.90;;;;;;5024067;28;20026;-79
2021/10/29 06:05:08;;;;;;;22.70;14.43;;;7.10;99.90;;;;;;5009372;28;20067;-79
2021/10/29 06:07:33;;;;;;;24.67;14.90;;;7.10;99.90;;;;;;5009096;28;20026;-79
2021/10/29 06:09:59;;;;;;;23.23;13.95;;;7.10;99.90;;;;;;5009711;28;20077;-79
2021/10/29 06:12:25;;;;;;;22.55;13.82;;;7.10;99.90;;;;;;5010176;28;20038;-79
2021/10/29 06:14:51;;;;;;;23.38;14.43;;;7.10;99.90;;;;;;5012536;28;20164;-79
2021/10/29 06:17:18;;;;;;;25.20;14.50;;;7.10;99.90;;;;;;5009284;28;20069;-79
2021/10/29 06:19:44;;;;;;;23.55;15.05;;;7.10;99.90;;;;;;5013339;28;20029;-79
2021/10/29 06:22:16;;;;;;;24.20;14.80;;;7.10;99.90;;;;;;5015649;28;20080;-80
2021/10/29 06:24:42;;;;;;;25.25;13.98;;;7.10;99.90;;;;;;5013410;28;20052;-80
2021/10/29 06:28:08;;;;;;;23.30;14.45;;;7.10;99.90;;;;;;5014696;28;20072;-79
2021/10/29 06:29:53;;;;;;;20.35;13.18;;;7.10;99.90;;;;;;5012380;28;20037;-80
2021/10/29 06:32:20;;;;;;;20.85;14.88;;;7.10;99.90;;;;;;5012675;28;20471;-79
2021/10/29 06:34:46;;;;;;;22.80;14.75;;;7.10;99.90;;;;;;5012612;28;20030;-80
2021/10/29 06:37:16;;;;;;;24.23;15.52;;;7.10;99.90;;;;;;5011032;28;20395;-80
2021/10/29 06:39:42;;;;;;;20.00;12.65;;;7.10;99.90;;;;;;5012130;28;20032;-80
2021/10/29 06:42:13;;;;;;;23.35;15.25;;;7.10;99.90;;;;;;5012243;28;20132;-78
2021/10/29 06:44:56;;;;;;;26.08;13.75;;;7.20;99.90;;;;;;5012814;28;20091;-80
2021/10/29 06:59:13;;;;;;;25.40;14.70;;;7.10;99.90;;;;;;5012174;28;20084;-79
2021/10/29 07:00:41;;;;;;;23.00;12.82;;;7.20;99.90;;;;;;5012153;28;20084;-80
2021/10/29 07:03:41;;;;;;;;;;;7.20;99.90;;;;;;5012799;28;20057;-80
2021/10/29 07:12:08;;;;;;;25.77;15.25;;;7.20;99.90;;;;;;5011733;28;20083;-81
2021/10/29 07:41:56;;;;;;;19.63;13.57;;;7.80;99.90;;;;;;5011901;28;20081;-81
2021/10/29 07:44:27;;;;;;;21.98;14.30;;;7.90;99.90;;;;;;5026918;28;20033;-78
2021/10/29 07:46:53;;;;;;;17.88;13.45;;;8.00;99.90;;;;;;5030822;28;20040;-79
2021/10/29 07:49:21;;;;;;;16.95;12.48;;;8.00;99.90;;;;;;5030293;28;20587;-81
2021/10/29 07:51:47;;;;;;;18.95;13.50;;;8.10;99.90;;;;;;5030970;28;20025;-82
2021/10/29 07:54:12;;;;;;;19.33;13.05;;;8.20;99.90;;;;;;5046244;28;20030;-78
2021/10/29 07:56:37;;;;;;;19.58;11.15;;;8.30;99.90;;;;;;5030691;28;20120;-79
2021/10/29 07:59:03;;;;;;;17.45;12.05;;;8.40;99.90;;;;;;5030105;28;20402;-78
2021/10/29 08:01:29;;;;;;;21.42;13.02;;;8.50;99.90;;;;;;5030466;28;20033;-79
2021/10/29 08:03:55;;;;;;;16.05;11.30;;;8.50;99.80;;;;;;5030661;28;20378;-79
2021/10/29 08:06:20;;;;;;;17.92;11.95;;;8.60;99.70;;;;;;5029300;28;20021;-79
2021/10/29 08:08:49;;;;;;;20.63;13.00;;;8.70;99.50;;;;;;5030138;28;20458;-78
2021/10/29 08:11:15;;;;;;;17.80;12.98;;;8.80;99.30;;;;;;5028824;28;20037;-78
2021/10/29 08:13:41;;;;;;;18.15;12.75;;;8.90;99.20;;;;;;5030636;28;20029;-79
2021/10/29 08:16:07;;;;;;;18.73;11.85;;;8.90;99.00;;;;;;5030424;28;20025;-79
2021/10/29 08:18:40;;;;;;;18.50;12.07;;;9.00;99.00;;;;;;5028729;28;20064;-80
2021/10/29 08:21:05;;;;;;;16.98;11.82;;;9.10;98.80;;;;;;5030066;28;20512;-80
2021/10/29 08:23:31;;;;;;;19.70;12.98;;;9.20;98.70;;;;;;5030182;28;20025;-80
2021/10/29 08:25:56;;;;;;;20.73;13.73;;;9.30;98.60;;;;;;5030525;28;20038;-81
2021/10/29 08:28:22;;;;;;;18.02;12.27;;;9.40;98.40;;;;;;5029224;28;20044;-80
2021/10/29 08:30:47;;;;;;;23.38;13.18;;;9.50;98.30;;;;;;5030181;28;20025;-80
2021/10/29 08:33:13;;;;;;;17.85;11.85;;;9.50;98.10;;;;;;5030229;28;20363;-80
2021/10/29 08:35:38;;;;;;;17.45;12.40;;;9.60;98.10;;;;;;5030122;28;20061;-80
2021/10/29 08:38:04;;;;;;;16.08;11.75;;;9.70;98.00;;;;;;5029534;28;20037;-81
2021/10/29 08:40:29;;;;;;;19.33;12.65;;;9.80;97.90;;;;;;5030338;28;20104;-80
2021/10/29 08:42:55;;;;;;;18.27;11.07;;;10.00;97.70;;;;;;5027901;28;20022;-81
2021/10/29 08:45:21;;;;;;;19.10;12.45;;;10.10;97.40;;;;;;5028583;28;20029;-81
2021/10/29 08:47:47;;;;;;;15.43;11.88;;;10.10;97.30;;;;;;5029536;28;20025;-81
2021/10/29 08:50:16;;;;;;;17.75;11.27;;;10.30;96.80;;;;;;5029806;28;20398;-80
2021/10/29 08:52:44;;;;;;;20.92;12.70;;;10.40;96.60;;;;;;5028486;28;20025;-81
2021/10/29 08:55:25;;;;;;;14.57;11.55;;;10.50;96.70;;;;;;5030563;28;20029;-80
2021/10/29 08:57:51;;;;;;;17.92;11.13;;;10.60;96.50;;;;;;5031122;28;20021;-81
2021/10/29 09:00:21;;;;;;;16.35;10.98;;;10.60;96.20;;;;;;5030929;28;20021;-81
2021/10/29 09:03:05;;;;;;;22.52;11.90;;;10.70;96.10;;;;;;5029340;28;20030;-80
2021/10/29 09:05:54;;;;;;;15.70;11.40;;;10.80;96.10;;;;;;5028589;28;20612;-81
2021/10/29 09:11:05;;;;;;;16.38;11.48;;;11.00;95.60;;;;;;5029673;28;20076;-81
2021/10/29 09:16:46;;;;;;;17.35;10.77;;;11.30;95.40;;;;;;5029655;28;20052;-80
2021/10/29 09:33:03;;;;;;;13.95;10.23;;;12.00;94.10;;;;;;5029290;28;20434;-81
2021/10/29 09:35:38;;;;;;;16.13;9.52;;;12.10;93.90;;;;;;5029622;28;20191;-81
2021/10/29 09:38:14;;;;;;;14.63;9.93;;;12.20;93.80;;;;;;5028594;28;20072;-81
2021/10/29 09:40:53;;;;;;;15.18;10.45;;;12.30;93.40;;;;;;5029242;28;20041;-81
2021/10/29 09:43:20;;;;;;;13.77;9.60;;;12.50;93.30;;;;;;5029434;28;20417;-81
2021/10/29 09:45:50;;;;;;;14.15;9.80;;;12.60;93.10;;;;;;5029652;28;20029;-81
2021/10/29 09:48:22;;;;;;;16.67;9.95;;;12.70;92.90;;;;;;5033924;28;20453;-81
2021/10/29 09:50:51;;;;;;;14.27;9.90;;;12.80;92.40;;;;;;5048806;28;20029;-80
2021/10/29 09:53:59;;;;;;;12.73;9.05;;;12.90;92.30;;;;;;5050629;28;20037;-80
2021/10/29 09:58:56;;;;;;;15.82;10.02;;;13.20;92.20;;;;;;5052176;28;20512;-81
2021/10/29 10:01:26;;;;;;;12.35;8.77;;;13.30;92.10;;;;;;5037251;28;20133;-80
2021/10/29 10:03:52;;;;;;;12.82;9.27;;;13.40;91.90;;;;;;5032991;28;20052;-80
2021/10/29 10:06:22;;;;;;;13.68;9.90;;;13.50;91.70;;;;;;5031586;28;20029;-81
2021/10/29 10:08:51;;;;;;;13.10;9.38;;;13.60;91.60;;;;;;5032479;28;20042;-80
2021/10/29 10:11:17;;;;;;;13.32;9.13;;;13.70;91.30;;;;;;5032337;28;20048;-81
2021/10/29 10:13:43;;;;;;;14.55;9.15;;;13.80;91.40;;;;;;5032888;28;20036;-81
2021/10/29 10:16:10;;;;;;;15.20;9.43;;;13.90;90.90;;;;;;5031391;28;20029;-81
2021/10/29 10:18:37;;;;;;;12.35;9.20;;;13.90;90.80;;;;;;5032351;28;20029;-81
2021/10/29 10:21:08;;;;;;;12.75;9.05;;;14.00;90.90;;;;;;5032433;28;20044;-81
2021/10/29 10:23:37;;;;;;;12.80;9.07;;;14.10;90.80;;;;;;5032949;28;20084;-81
2021/10/29 10:26:17;;;;;;;13.82;8.70;;;14.20;90.70;;;;;;5032829;28;20068;-81
2021/10/29 10:29:04;;;;;;;13.07;9.88;;;14.30;90.70;;;;;;5031658;28;20104;-81
2021/10/29 10:40:15;;;;;;;13.55;9.73;;;14.50;90.50;;;;;;5031233;28;20419;-81
2021/10/29 10:43:54;;;;;;;13.27;8.98;;;14.70;90.00;;;;;;5029793;28;20033;-81
2021/10/29 10:46:21;;;;;;;14.18;9.25;;;14.80;90.30;;;;;;5012934;28;20157;-81
2021/10/29 10:49:05;;;;;;;11.07;8.57;;;14.90;90.10;;;;;;5023179;28;20037;-82
2021/10/29 10:57:17;;;;;;;10.68;8.30;;;15.10;89.20;;;;;;5031997;28;20037;-81
2021/10/29 11:10:18;;;;;;;10.60;7.78;;;15.50;86.90;;;;;;5032508;28;20040;-80
2021/10/29 11:12:44;;;;;;;11.10;7.40;;;15.60;87.20;;;;;;5032141;28;20026;-79
2021/10/29 11:15:22;;;;;;;11.98;6.75;;;15.70;87.20;;;;;;5031159;28;20363;-79
2021/10/29 11:17:56;;;;;;;9.35;7.00;;;15.70;85.40;;;;;;5029741;28;20885;-80
2021/10/29 11:20:46;;;;;;;8.80;6.80;;;15.70;84.80;;;;;;5032045;28;20621;-81
2021/10/29 11:23:22;;;;;;;8.77;6.68;;;15.70;84.30;;;;;;5031680;28;20080;-80
2021/10/29 11:26:02;;;;;;;10.48;6.60;;;15.80;84.50;;;;;;5032237;28;20033;-81
2021/10/29 11:28:44;;;;;;;8.63;6.32;;;15.90;84.30;;;;;;5032523;28;20036;-80
2021/10/29 11:31:13;;;;;;;8.65;5.88;;;15.90;83.70;;;;;;5030351;28;20390;-80
2021/10/29 11:33:40;;;;;;;8.63;5.97;;;16.00;83.70;;;;;;5033336;28;20620;-79
2021/10/29 11:36:08;;;;;;;8.10;5.63;;;16.10;84.10;;;;;;5033204;28;20051;-80
2021/10/29 11:38:38;;;;;;;7.00;4.85;;;16.20;83.10;;;;;;5030844;28;20095;-80
2021/10/29 11:41:13;;;;;;;6.68;4.80;;;16.30;80.10;;;;;;5031084;28;20029;-80
2021/10/29 11:43:39;;;;;;;5.50;4.00;;;16.40;80.00;;;;;;5031311;28;20032;-80
2021/10/29 11:46:08;;;;;;;10.65;3.97;;;16.50;78.50;;;;;;5031464;28;20022;-80
2021/10/29 11:48:54;;;;;;;5.82;4.43;;;16.50;77.90;;;;;;5030773;28;20032;-80
2021/10/29 11:51:23;;;;;;;5.70;4.60;;;16.60;80.70;;;;;;5029610;28;20075;-81
2021/10/29 11:53:55;;;;;;;6.93;5.22;;;16.70;78.90;;;;;;5035071;28;20568;-80
2021/10/29 11:56:32;;;;;;;8.32;5.68;;;16.70;77.90;;;;;;5066184;28;20059;-80
2021/10/29 12:01:37;;;;;;;6.43;4.63;;;16.80;80.40;;;;;;5029113;28;20034;-81
2021/10/29 12:09:31;;;;;;;5.28;4.63;;;17.00;78.60;;;;;;5030208;28;20060;-82
2021/10/29 12:12:07;;;;;;;6.75;4.57;;;17.10;79.00;;;;;;5030951;28;20025;-82
2021/10/29 12:14:35;;;;;;;6.07;4.72;;;17.20;78.40;;;;;;5030130;28;20067;-82
2021/10/29 12:17:10;;;;;;;6.22;4.85;;;17.30;78.30;;;;;;5029776;28;20024;-82
2021/10/29 12:19:39;;;;;;;6.20;5.13;;;17.30;76.50;;;;;;5030201;28;20025;-82
2021/10/29 12:22:16;;;;;;;7.00;4.60;;;17.30;76.20;;;;;;5030387;28;20025;-82
2021/10/29 12:24:49;;;;;;;7.38;4.80;;;17.40;77.10;;;;;;5030572;28;20026;-82
2021/10/29 12:27:23;;;;;;;5.15;4.47;;;17.50;76.50;;;;;;5030011;28;20482;-82
2021/10/29 12:30:21;;;;;;;5.97;4.63;;;17.60;75.80;;;;;;5029787;28;20091;-82
2021/10/29 12:53:01;;;;;;;6.68;4.70;;;18.30;74.50;;;;;;5029810;28;19952;-80
2021/10/29 13:03:53;;;;;;;5.20;4.40;;;18.60;74.60;;;;;;5029796;28;20080;-81
2021/10/29 13:06:18;;;;;;;7.18;5.32;;;18.60;73.80;;;;;;5029357;28;20033;-80
2021/10/29 13:08:48;;;;;;;6.72;4.90;;;18.70;73.70;;;;;;5029022;28;20040;-80
2021/10/29 13:11:15;;;;;;;9.27;5.97;;;18.70;74.20;;;;;;5029272;28;20030;-80
2021/10/29 13:13:44;;;;;;;7.15;5.38;;;18.80;73.80;;;;;;5029558;28;20022;-80
2021/10/29 13:16:15;;;;;;;8.55;5.70;;;18.80;73.90;;;;;;5028167;28;20056;-80
2021/10/29 13:18:58;;;;;;;6.70;5.82;;;18.80;74.50;;;;;;5028990;28;20030;-80
2021/10/29 13:27:02;;;;;;;9.32;6.22;;;18.80;74.40;;;;;;5029287;28;20112;-80
2021/10/29 13:35:20;;;;;;;8.35;6.75;;;18.70;75.00;;;;;;5029116;28;20064;-80
2021/10/29 14:24:32;;;;;;;14.43;8.00;;;17.40;82.10;;;;;;5029035;28;20144;-80
2021/10/29 14:29:46;;;;;;;13.10;9.43;;;17.20;82.70;;;;;;5027860;28;20260;-80
2021/10/29 14:32:24;;;;;;;12.02;9.00;;;17.20;83.00;;;;;;5028542;28;20029;-80
2021/10/29 14:34:52;;;;;;;13.85;9.10;;;17.10;82.90;;;;;;5028607;28;20036;-80
2021/10/29 14:37:40;;;;;;;14.98;9.88;;;17.00;83.30;;;;;;5028727;28;20029;-81
2021/10/29 14:40:14;;;;;;;14.65;10.00;;;16.90;83.40;;;;;;5029435;28;20061;-80
2021/10/29 14:53:33;;;;;;;16.65;9.70;;;16.50;84.80;;;;;;5032259;28;20124;-80
2021/10/29 15:04:12;;;;;;;11.68;8.57;;;16.20;85.50;;;;;;5031931;28;20546;-81
2021/10/29 15:28:18;;;;;;;13.25;7.78;;;15.30;88.90;;;;;;5031138;28;20029;-80
2021/10/29 15:44:20;;;;;;;17.88;9.70;;;14.60;91.30;;;;;;5053552;28;20098;-80
2021/10/29 15:51:45;;;;;;;14.77;10.32;;;14.30;91.90;;;;;;5050537;28;20029;-81
2021/10/29 15:54:11;;;;;;;20.45;10.77;;;14.20;91.80;;;;;;5050860;28;20028;-80
2021/10/29 15:56:41;;;;;;;13.30;9.30;;;14.10;91.90;;;;;;5051009;28;20032;-80
2021/10/29 15:59:14;;;;;;;15.45;10.18;;;14.00;92.10;;;;;;5049895;28;20116;-81
2021/10/29 16:01:50;;;;;;;18.80;10.75;;;13.90;92.30;;;;;;5049540;28;20359;-81
2021/10/29 16:18:03;;;;;;;20.30;13.88;;;13.30;93.90;;;;;;5029857;28;20044;-81
2021/10/29 16:20:29;;;;;;;23.38;16.65;;;13.20;94.30;;;;;;5029536;28;20052;-81
2021/10/29 16:22:57;;;;;;;23.75;17.27;;;13.10;94.40;;;;;;5030162;28;20037;-81
2021/10/29 16:27:57;;;;;;;25.50;17.95;;;12.90;95.10;;;;;;5029278;28;20537;-80
2021/10/29 16:30:27;;;;;;;24.58;18.02;;;12.90;95.10;;;;;;5030247;28;20115;-80
2021/10/29 16:35:27;;;;;;;26.58;18.85;;;12.70;95.50;;;;;;5030456;28;20032;-81
2021/10/29 16:37:52;;;;;;;31.92;20.13;;;12.60;95.70;;;;;;5029669;28;20028;-81
2021/10/29 16:40:19;;;;;;;24.95;18.25;;;12.60;95.90;;;;;;5030319;28;20030;-80
2021/10/29 16:42:45;;;;;;;26.33;20.48;;;12.50;96.00;;;;;;5030188;28;20052;-81
2021/10/29 16:45:13;;;;;;;30.05;18.42;;;12.50;96.20;;;;;;5030027;28;20052;-81
2021/10/29 16:47:41;;;;;;;26.52;17.75;;;12.40;96.30;;;;;;5028144;28;20033;-80
2021/10/29 16:50:09;;;;;;;27.13;17.83;;;12.40;96.60;;;;;;5030015;28;20030;-81
2021/10/29 16:52:34;;;;;;;26.73;18.50;;;12.30;96.50;;;;;;5029765;28;20117;-81
2021/10/29 16:55:00;;;;;;;24.98;17.58;;;12.30;96.60;;;;;;5030334;28;20109;-80
2021/10/29 16:57:25;;;;;;;21.83;15.18;;;12.20;96.50;;;;;;5030325;28;20398;-80
2021/10/29 16:59:51;;;;;;;21.50;15.02;;;12.20;96.40;;;;;;5029791;28;20665;-81
2021/10/29 17:02:16;;;;;;;18.67;13.00;;;12.10;96.00;;;;;;5028691;28;20024;-81
2021/10/29 17:04:42;;;;;;;17.65;12.98;;;12.10;95.20;;;;;;5030445;28;20466;-80
2021/10/29 17:07:08;;;;;;;18.58;11.82;;;12.10;94.90;;;;;;5029688;28;20347;-80
2021/10/29 17:09:34;;;;;;;16.13;11.25;;;12.10;94.70;;;;;;5029534;28;20030;-81
2021/10/29 17:12:00;;;;;;;17.40;11.32;;;12.10;94.50;;;;;;5029506;28;20036;-80
2021/10/29 17:14:27;;;;;;;15.63;11.48;;;12.10;94.00;;;;;;5030003;28;20363;-79